Time;durP1;ratioP1;P1;durP2;ratioP2;P2;SDS_P1;SDS_P2;PMS_P1;PMS_P2;Temp;Humidity;BMP_temperature;BMP_pressure;BME280_temperature;BME280_humidity;BME280_pressure;Samples;Min_cycle;Max_cycle;Signal;HPM_P1;HPM_P2
2023/08/01 00:18:45;;;;;;;2.90;1.47;;;15.90;99.90;;;;;;2614534;54;20355;-76
2023/08/01 00:24:33;;;;;;;2.97;1.40;;;15.90;99.90;;;;;;2614575;54;20637;-76
2023/08/01 00:30:21;;;;;;;3.00;1.40;;;15.80;99.90;;;;;;2612391;54;20645;-75
2023/08/01 00:36:11;;;;;;;2.37;1.27;;;15.80;99.90;;;;;;2614699;54;20126;-75
2023/08/01 00:41:59;;;;;;;1.53;1.00;;;15.80;99.90;;;;;;2615021;54;20431;-76
2023/08/01 00:51:46;;;;;;;2.10;1.40;;;15.70;99.90;;;;;;2614448;39;20855;-76
2023/08/01 00:57:34;;;;;;;2.43;1.53;;;15.70;99.90;;;;;;2613699;54;20499;-76
2023/08/01 01:03:23;;;;;;;2.87;1.70;;;15.70;99.90;;;;;;2612996;54;20218;-76
2023/08/01 01:09:17;;;;;;;2.53;2.03;;;15.70;99.90;;;;;;2613296;54;20391;-76
2023/08/01 01:15:06;;;;;;;3.90;2.73;;;15.80;99.90;;;;;;2614423;54;20359;-75
2023/08/01 01:20:53;;;;;;;6.20;3.90;;;15.70;99.90;;;;;;2613919;54;20388;-77
2023/08/01 01:26:42;;;;;;;6.47;4.20;;;15.80;99.90;;;;;;2612695;54;20307;-76
2023/08/01 01:32:30;;;;;;;6.50;4.60;;;15.80;99.90;;;;;;2614264;39;20793;-76
2023/08/01 01:38:18;;;;;;;6.63;4.57;;;15.70;99.90;;;;;;2613893;54;20367;-76
2023/08/01 01:44:06;;;;;;;6.83;4.10;;;15.70;99.90;;;;;;2616304;54;20126;-79
2023/08/01 01:47:18;;;;;;;8.20;4.67;;;15.70;99.90;;;;;;2616649;39;20882;-79
2023/08/01 01:49:43;;;;;;;5.97;3.50;;;15.70;99.90;;;;;;2615051;54;20177;-79
2023/08/01 01:55:31;;;;;;;6.27;3.90;;;15.70;99.90;;;;;;2614843;54;20226;-77
2023/08/01 02:01:19;;;;;;;6.20;4.67;;;15.40;99.90;;;;;;2614848;54;20162;-80
2023/08/01 02:07:06;;;;;;;9.97;6.73;;;15.30;99.90;;;;;;2614440;54;20686;-78
2023/08/01 02:12:54;;;;;;;6.63;4.43;;;15.20;99.90;;;;;;2614336;54;20130;-77
2023/08/01 02:18:42;;;;;;;7.07;4.90;;;15.10;99.90;;;;;;2615466;54;20131;-78
2023/08/01 02:24:29;;;;;;;6.17;3.87;;;15.00;99.90;;;;;;2614709;54;20344;-78
2023/08/01 02:30:17;;;;;;;5.33;3.50;;;15.00;99.90;;;;;;2615077;54;20125;-79
2023/08/01 02:36:04;;;;;;;4.73;3.43;;;15.00;99.90;;;;;;2614112;54;20139;-78
2023/08/01 02:41:52;;;;;;;6.93;4.03;;;15.00;99.90;;;;;;2615521;54;20171;-79
2023/08/01 02:51:49;;;;;;;5.70;4.40;;;15.10;99.90;;;;;;2614408;54;20416;-79
2023/08/01 02:57:37;;;;;;;7.60;5.93;;;15.10;99.90;;;;;;2615809;39;20570;-78
2023/08/01 03:03:25;;;;;;;8.23;5.30;;;15.20;99.90;;;;;;2613512;54;20386;-79
2023/08/01 03:09:12;;;;;;;8.93;6.33;;;15.20;99.90;;;;;;2615475;54;20126;-78
2023/08/01 03:15:00;;;;;;;9.87;7.47;;;15.20;99.90;;;;;;2615513;54;20672;-76
2023/08/01 03:20:48;;;;;;;15.23;9.27;;;15.30;99.90;;;;;;2615566;39;20822;-78
2023/08/01 03:26:36;;;;;;;17.00;11.27;;;15.30;99.90;;;;;;2615929;39;20198;-79
2023/08/01 03:32:24;;;;;;;20.03;11.30;;;15.30;99.90;;;;;;2614714;54;20498;-77
2023/08/01 03:38:12;;;;;;;19.43;13.30;;;15.30;99.90;;;;;;2614538;54;20143;-79
2023/08/01 03:43:59;;;;;;;19.23;13.20;;;15.30;99.90;;;;;;2615206;31;20831;-78
2023/08/01 03:49:29;;;;;;;27.43;14.97;;;;;;;;;;2614695;54;20309;-77
2023/08/01 03:54:59;;;;;;;24.30;16.70;;;;;;;;;;2614750;54;20411;-78
2023/08/01 04:00:32;;;;;;;25.47;13.63;;;;;;;;;;2613772;39;20788;-77
2023/08/01 04:06:02;;;;;;;25.90;17.23;;;;;;;;;;2615147;54;20387;-79
2023/08/01 04:11:32;;;;;;;17.70;11.43;;;;;;;;;;2614749;54;20459;-77
2023/08/01 04:17:01;;;;;;;20.40;11.23;;;;;;;;;;2615700;54;20984;-77
2023/08/01 04:22:49;;;;;;;31.93;12.53;;;;;;;;;;2614821;54;20969;-77
2023/08/01 04:28:19;;;;;;;13.00;9.90;;;;;;;;;;2614943;54;20440;-77
2023/08/01 04:33:48;;;;;;;18.67;14.90;;;14.90;99.90;;;;;;2615141;54;20415;-76
2023/08/01 04:39:18;;;;;;;18.97;11.20;;;;;;;;;;2614872;54;20849;-78
2023/08/01 04:44:48;;;;;;;26.77;14.97;;;;;;;;;;2614308;54;20386;-76
2023/08/01 04:53:49;;;;;;;20.63;14.43;;;;;;;;;;2614173;54;20977;-73
2023/08/01 04:59:19;;;;;;;31.50;15.57;;;;;;;;;;2615626;54;20394;-73
2023/08/01 05:04:48;;;;;;;33.60;14.40;;;;;;;;;;2615269;54;20468;-74
2023/08/01 05:10:18;;;;;;;27.47;14.60;;;;;;;;;;2615344;54;20375;-74
2023/08/01 05:15:48;;;;;;;20.20;11.50;;;;;;;;;;2615914;54;20414;-74
2023/08/01 05:21:18;;;;;;;23.00;14.53;;;;;;;;;;2612358;54;20410;-77
2023/08/01 05:26:48;;;;;;;29.73;16.83;;;;;;;;;;2614059;54;20366;-73
2023/08/01 05:32:17;;;;;;;20.90;14.33;;;;;;;;;;2614904;54;20484;-72
2023/08/01 05:38:05;;;;;;;18.67;13.87;;;;;;;;;;2614573;54;20391;-70
2023/08/01 05:43:35;;;;;;;23.80;15.63;;;;;;;;;;2612568;54;20383;-71
2023/08/01 05:49:04;;;;;;;32.80;18.93;;;;;;;;;;2614599;54;20381;-76
2023/08/01 05:54:34;;;;;;;26.50;16.10;;;;;;;;;;2610559;54;20893;-70
2023/08/01 06:00:04;;;;;;;32.63;19.27;;;15.30;99.90;;;;;;2613339;54;20507;-74
2023/08/01 06:05:33;;;;;;;25.03;17.40;;;15.40;99.90;;;;;;2613508;54;20439;-75
2023/08/01 06:11:03;;;;;;;24.07;16.60;;;;;;;;;;2614417;54;20658;-72
2023/08/01 06:16:51;;;;;;;24.80;16.10;;;;;;;;;;2612574;54;20402;-72
2023/08/01 06:22:39;;;;;;;26.80;17.20;;;;;;;;;;2612382;54;20375;-72
2023/08/01 06:28:09;;;;;;;31.03;16.53;;;;;;;;;;2609525;54;21298;-73
2023/08/01 06:33:38;;;;;;;18.50;13.20;;;;;;;;;;2612628;54;20916;-72
2023/08/01 06:39:08;;;;;;;26.17;16.30;;;;;;;;;;2613776;54;20359;-71
2023/08/01 06:44:37;;;;;;;20.30;13.80;;;;;;;;;;2612909;39;20909;-73
2023/08/01 06:53:50;;;;;;;29.07;15.73;;;;;;;;;;2614599;54;20415;-72
2023/08/01 06:59:20;;;;;;;29.17;18.00;;;;;;;;;;2613319;54;20362;-74
2023/08/01 07:04:49;;;;;;;22.10;15.27;;;;;;;;;;2613574;54;20395;-77
2023/08/01 07:10:20;;;;;;;19.80;15.30;;;;;;;;;;2613802;54;20367;-77
2023/08/01 07:15:52;;;;;;;20.80;14.17;;;;;;;;;;2614090;54;20399;-76
2023/08/01 07:21:22;;;;;;;18.63;13.90;;;;;;;;;;2614847;54;20395;-74
2023/08/01 07:26:52;;;;;;;17.30;12.07;;;;;;;;;;2615347;54;20402;-74
2023/08/01 07:32:21;;;;;;;21.10;11.73;;;;;;;;;;2614221;54;20487;-73
2023/08/01 07:37:51;;;;;;;19.73;12.30;;;;;;;;;;2612958;54;20402;-75
2023/08/01 07:43:21;;;;;;;14.30;10.33;;;;;;;;;;2614085;54;20407;-74
2023/08/01 07:48:53;;;;;;;16.23;9.43;;;;;;;;;;2612845;54;20418;-76
2023/08/01 07:54:24;;;;;;;13.53;9.30;;;;;;;;;;2613780;54;20435;-75
2023/08/01 07:59:53;;;;;;;12.93;8.90;;;;;;;;;;2614359;54;20419;-77
2023/08/01 08:05:23;;;;;;;12.10;8.23;;;;;;;;;;2613355;54;20359;-75
2023/08/01 08:10:52;;;;;;;15.47;9.63;;;;;;;;;;2614273;54;20354;-74
2023/08/01 08:16:24;;;;;;;10.00;8.13;;;;;;;;;;2613797;54;20375;-75
2023/08/01 08:21:53;;;;;;;14.60;8.73;;;;;;;;;;2613983;54;20390;-75
2023/08/01 08:27:23;;;;;;;15.13;8.23;;;;;;;;;;2614353;39;20763;-76
2023/08/01 08:32:53;;;;;;;11.80;8.80;;;;;;;;;;2612372;54;20379;-70
2023/08/01 08:38:22;;;;;;;10.03;8.67;;;;;;;;;;2613637;54;20383;-70
2023/08/01 08:43:53;;;;;;;11.60;9.13;;;;;;;;;;2613157;54;20350;-72
2023/08/01 08:49:23;;;;;;;12.70;9.10;;;;;;;;;;2614300;54;20484;-72
2023/08/01 08:55:28;;;;;;;12.13;8.40;;;;;;;;;;2614510;54;20442;-72
2023/08/01 09:01:01;;;;;;;11.37;9.10;;;;;;;;;;2614995;54;20363;-71
2023/08/01 09:06:32;;;;;;;12.50;9.40;;;;;;;;;;2613785;54;20407;-75
2023/08/01 09:12:02;;;;;;;12.57;8.00;;;;;;;;;;2614184;54;20398;-72
2023/08/01 09:17:31;;;;;;;11.57;7.80;;;;;;;;;;2612680;54;20479;-73
2023/08/01 09:23:01;;;;;;;9.27;7.20;;;;;;;;;;2614519;54;20411;-74
2023/08/01 09:28:31;;;;;;;10.10;7.20;;;;;;;;;;2614919;54;20362;-71
2023/08/01 09:34:02;;;;;;;9.70;7.70;;;;;;;;;;2614015;54;20913;-74
2023/08/01 09:39:31;;;;;;;8.43;7.27;;;;;;;;;;2614762;54;20439;-71
2023/08/01 09:45:01;;;;;;;7.13;6.43;;;;;;;;;;2614411;54;20375;-73
2023/08/01 09:50:31;;;;;;;7.93;6.47;;;;;;;;;;2613352;54;20395;-74
2023/08/01 09:59:38;;;;;;;9.17;6.33;;;;;;;;;;2614654;54;20394;-72
2023/08/01 10:05:08;;;;;;;9.20;6.83;;;;;;;;;;2613678;54;20423;-73
2023/08/01 10:10:38;;;;;;;6.17;5.60;;;;;;;;;;2614736;54;20427;-71
2023/08/01 10:16:08;;;;;;;8.03;6.50;;;;;;;;;;2616520;39;20944;-71
2023/08/01 10:21:37;;;;;;;6.23;5.63;;;;;;;;;;2615211;54;20386;-72
2023/08/01 10:27:19;;;;;;;9.20;6.13;;;;;;;;;;2613873;54;20390;-73
2023/08/01 10:32:54;;;;;;;9.17;5.50;;;;;;;;;;2614912;54;20398;-73
2023/08/01 10:38:24;;;;;;;8.37;5.30;;;;;;;;;;2616735;31;20807;-71
2023/08/01 10:44:06;;;;;;;7.67;4.70;;;;;;;;;;2616739;54;20395;-73
2023/08/01 10:49:44;;;;;;;9.90;7.23;;;;;;;;;;2615888;54;20391;-71
2023/08/01 10:55:14;;;;;;;8.40;5.37;;;;;;;;;;2615785;54;20386;-71
2023/08/01 11:00:43;;;;;;;6.33;5.83;;;;;;;;;;2617236;39;20761;-72
2023/08/01 11:06:13;;;;;;;7.90;4.50;;;;;;;;;;2614856;54;20379;-71
2023/08/01 11:11:43;;;;;;;6.67;4.27;;;;;;;;;;2614561;54;20419;-74
2023/08/01 11:17:13;;;;;;;9.00;4.10;;;;;;;;;;2614928;54;20408;-72
2023/08/01 11:22:50;;;;;;;13.40;6.20;;;;;;;;;;2614714;54;20423;-69
2023/08/01 11:28:19;;;;;;;9.23;7.43;;;;;;;;;;2615012;54;20403;-70
2023/08/01 11:33:56;;;;;;;11.43;7.60;;;;;;;;;;2614733;54;20347;-70
2023/08/01 11:36:50;;;;;;;6.27;5.30;;;;;;;;;;2613580;51;20396;-72
2023/08/01 11:39:16;;;;;;;13.97;7.20;;;;;;;;;;2611294;54;20400;-72
2023/08/01 11:44:46;;;;;;;8.47;5.60;;;;;;;;;;2612748;54;20378;-71
2023/08/01 11:50:22;;;;;;;3.53;2.67;;;;;;;;;;2612342;54;20386;-71
2023/08/01 12:01:59;;;;;;;5.63;2.50;;;;;;;;;;2613514;54;20406;-75
2023/08/01 12:07:29;;;;;;;3.70;3.00;;;;;;;;;;2611260;54;20506;-75
2023/08/01 12:12:58;;;;;;;7.00;4.17;;;;;;;;;;2611051;54;20380;-75
2023/08/01 12:18:29;;;;;;;4.70;3.60;;;;;;;;;;2611622;54;20347;-75
2023/08/01 12:23:58;;;;;;;7.10;4.73;;;;;;;;;;2611573;54;20416;-75
2023/08/01 12:29:28;;;;;;;7.83;3.80;;;;;;;;;;2611066;54;20367;-75
2023/08/01 12:34:58;;;;;;;4.50;4.07;;;;;;;;;;2611781;54;20386;-74
2023/08/01 12:40:28;;;;;;;4.67;4.10;;;;;;;;;;2610198;54;20432;-75
2023/08/01 12:45:58;;;;;;;7.17;5.20;;;;;;;;;;2614225;54;20379;-74
2023/08/01 12:51:27;;;;;;;7.90;4.60;;;;;;;;;;2614402;54;20398;-74
2023/08/01 13:03:04;;;;;;;5.60;4.10;;;;;;;;;;2610399;54;20407;-75
2023/08/01 13:08:34;;;;;;;4.70;4.30;;;;;;;;;;2614452;54;20948;-75
2023/08/01 13:14:04;;;;;;;4.50;4.10;;;;;;;;;;2614619;54;20414;-74
2023/08/01 13:19:34;;;;;;;6.00;4.40;;;;;;;;;;2614348;54;20392;-74
2023/08/01 13:25:04;;;;;;;5.63;5.10;;;;;;;;;;2614181;54;20379;-74
2023/08/01 13:30:34;;;;;;;5.03;4.53;;;;;;;;;;2615205;39;20881;-75
2023/08/01 13:36:03;;;;;;;5.20;4.27;;;;;;;;;;2613635;54;20414;-72
2023/08/01 13:41:33;;;;;;;6.40;3.87;;;;;;;;;;2614322;54;20382;-72
2023/08/01 13:47:03;;;;;;;4.33;3.90;;;;;;;;;;2614014;54;20945;-71
2023/08/01 13:52:33;;;;;;;8.13;3.90;;;;;;;;;;2615175;54;20510;-71
2023/08/01 14:01:43;;;;;;;6.53;4.30;;;;;;;;;;2616204;39;20801;-71
2023/08/01 14:07:15;;;;;;;5.93;4.60;;;;;;;;;;2617234;54;20387;-72
2023/08/01 14:12:45;;;;;;;5.50;4.83;;;;;;;;;;2617745;39;20819;-71
2023/08/01 14:18:15;;;;;;;5.57;5.07;;;;;;;;;;2616034;54;20386;-72
2023/08/01 14:23:45;;;;;;;7.00;5.40;;;;;;;;;;2612586;54;20395;-75
2023/08/01 14:29:15;;;;;;;5.63;5.17;;;;;;;;;;2612154;54;20379;-75
2023/08/01 14:34:45;;;;;;;9.50;6.10;;;;;;;;;;2611852;54;20386;-75
2023/08/01 14:40:14;;;;;;;6.00;5.47;;;;;;;;;;2614583;54;21002;-75
2023/08/01 14:45:44;;;;;;;5.97;5.33;;;;;;;;;;2613238;54;21031;-74
2023/08/01 14:51:14;;;;;;;6.63;5.60;;;;;;;;;;2611477;54;20383;-74
2023/08/01 14:56:44;;;;;;;8.60;6.13;;;;;;;;;;2611505;54;20495;-74
2023/08/01 15:02:13;;;;;;;5.83;5.37;;;;;;;;;;2611395;54;20450;-74
2023/08/01 15:07:43;;;;;;;5.80;5.40;;;;;;;;;;2612479;54;20475;-74
2023/08/01 15:13:12;;;;;;;5.70;5.20;;;;;;;;;;2611886;54;20418;-73
2023/08/01 15:18:42;;;;;;;7.03;5.37;;;;;;;;;;2611586;54;20404;-75
2023/08/01 15:21:28;;;;;;;7.13;6.07;;;;;;;;;;2611699;54;20395;-74
2023/08/01 15:23:54;;;;;;;6.07;5.47;;;;;;;;;;2611688;54;21477;-74
2023/08/01 15:29:24;;;;;;;6.83;6.20;;;;;;;;;;2609791;54;20897;-74
2023/08/01 15:34:55;;;;;;;6.50;6.00;;;;;;;;;;2612138;54;20443;-77
2023/08/01 15:40:25;;;;;;;6.70;5.90;;;;;;;;;;2613830;54;20387;-75
2023/08/01 15:45:55;;;;;;;6.43;5.83;;;;;;;;;;2612072;54;20367;-76
2023/08/01 15:51:25;;;;;;;6.33;5.87;;;;;;;;;;2611401;54;20406;-74
2023/08/01 15:56:54;;;;;;;6.67;5.53;;;;;;;;;;2611348;54;20390;-76
2023/08/01 16:06:02;;;;;;;6.17;5.30;;;;;;;;;;2610621;54;20423;-75
2023/08/01 16:11:31;;;;;;;6.50;6.00;;;;;;;;;;2611456;54;20393;-73
2023/08/01 16:17:01;;;;;;;6.50;5.90;;;;;;;;;;2611709;54;20375;-74
2023/08/01 16:22:31;;;;;;;5.83;5.23;;;;;;;;;;2610745;54;20939;-74
2023/08/01 16:28:00;;;;;;;6.33;5.90;;;;;;;;;;2610461;54;20466;-75
2023/08/01 16:33:30;;;;;;;5.20;5.00;;;;;;;;;;2613802;54;20398;-76
2023/08/01 16:39:00;;;;;;;6.10;5.60;;;;;;;;;;2612624;54;20367;-74
2023/08/01 16:44:30;;;;;;;7.03;5.57;;;;;;;;;;2613675;54;20423;-75
2023/08/01 16:50:00;;;;;;;8.47;7.70;;;;;;;;;;2614364;54;20399;-75
2023/08/01 16:55:29;;;;;;;12.63;11.07;;;;;;;;;;2614064;54;20973;-76
2023/08/01 17:00:59;;;;;;;6.10;5.73;;;;;;;;;;2614003;54;20399;-75
2023/08/01 17:06:29;;;;;;;7.03;6.33;;;;;;;;;;2613915;54;20379;-76
2023/08/01 17:11:58;;;;;;;6.47;5.97;;;;;;;;;;2615170;54;20363;-76
2023/08/01 17:17:28;;;;;;;6.27;5.77;;;;;;;;;;2614605;54;21023;-75
2023/08/01 17:22:58;;;;;;;8.13;7.37;;;;;;;;;;2614908;54;21025;-77
2023/08/01 17:28:28;;;;;;;11.50;7.13;;;;;;;;;;2614873;54;20510;-75
2023/08/01 17:33:58;;;;;;;6.30;5.83;;;;;;;;;;2614410;54;21121;-75
2023/08/01 17:39:27;;;;;;;6.40;5.73;;;;;;;;;;2614130;54;20543;-75
2023/08/01 17:44:57;;;;;;;5.50;5.20;;;;;;;;;;2614435;46;20444;-75
2023/08/01 17:50:27;;;;;;;6.70;6.20;;;;;;;;;;2613858;54;20387;-75
2023/08/01 17:55:56;;;;;;;8.73;7.90;;;;;;;;;;2614779;54;20368;-75
2023/08/01 18:01:26;;;;;;;8.67;7.93;;;;;;;;;;2615388;39;20833;-75
2023/08/01 18:06:55;;;;;;;8.07;7.27;;;;;;;;;;2612238;54;20348;-71
2023/08/01 18:12:25;;;;;;;6.13;5.73;;;;;;;;;;2615142;54;20379;-75
2023/08/01 18:17:55;;;;;;;6.10;5.50;;;;;;;;;;2612274;54;20359;-74
2023/08/01 18:23:25;;;;;;;5.40;5.10;;;;;;;;;;2614963;54;20901;-73
2023/08/01 18:28:54;;;;;;;6.50;5.90;;;;;;;;;;2614524;54;20419;-74
2023/08/01 18:34:24;;;;;;;5.73;5.23;;;;;;;;;;2614862;54;20375;-74
2023/08/01 18:39:54;;;;;;;6.37;5.73;;;;;;;;;;2615064;54;20363;-74
2023/08/01 18:45:24;;;;;;;5.70;5.20;;;;;;;;;;2612528;54;20379;-74
2023/08/01 18:50:53;;;;;;;8.07;6.40;;;;;;;;;;2612751;54;20425;-76
2023/08/01 18:56:23;;;;;;;9.07;6.80;;;;;;;;;;2611133;54;20394;-76
2023/08/01 19:08:00;;;;;;;8.70;5.53;;;;;;;;;;2612229;39;20726;-74
2023/08/01 19:13:31;;;;;;;4.70;4.40;;;;;;;;;;2612460;54;20410;-74
2023/08/01 19:19:00;;;;;;;5.30;4.53;;;;;;;;;;2613339;39;20741;-74
2023/08/01 19:24:30;;;;;;;6.40;5.13;;;;;;;;;;2613230;54;20398;-70
2023/08/01 19:29:59;;;;;;;6.93;5.67;;;;;;;;;;2613560;54;20423;-72
2023/08/01 19:35:29;;;;;;;6.00;5.17;;;;;;;;;;2613452;39;20736;-71
2023/08/01 19:41:00;;;;;;;5.77;4.97;;;;;;;;;;2614750;54;20472;-72
2023/08/01 19:46:30;;;;;;;5.53;5.13;;;;;;;;;;2613397;54;20359;-70
2023/08/01 19:52:01;;;;;;;6.23;5.63;;;;;;;;;;2615170;54;20391;-73
2023/08/01 19:57:30;;;;;;;6.70;5.20;;;;;;;;;;2615030;54;20388;-70
2023/08/01 20:06:34;;;;;;;5.00;4.60;;;;;;;;;;2614549;54;20427;-70
2023/08/01 20:12:04;;;;;;;5.97;5.10;;;;;;;;;;2615166;54;20970;-70
2023/08/01 20:17:34;;;;;;;9.50;5.10;;;;;;;;;;2614857;54;20359;-70
2023/08/01 20:23:03;;;;;;;6.17;5.57;;;;;;;;;;2614844;54;20395;-69
2023/08/01 20:28:33;;;;;;;11.63;4.70;;;;;;;;;;2614726;54;20391;-71
2023/08/01 20:34:03;;;;;;;7.27;5.00;;;;;;;;;;2614985;54;21688;-75
2023/08/01 20:39:33;;;;;;;5.03;4.60;;;;;;;;;;2614731;54;20407;-75
2023/08/01 20:45:03;;;;;;;5.07;4.03;;;;;;;;;;2614179;54;20390;-74
2023/08/01 20:50:33;;;;;;;9.57;4.57;;;;;;;;;;2615020;39;20762;-75
2023/08/01 20:56:03;;;;;;;7.00;5.10;;;;;;;;;;2614724;39;20852;-75
2023/08/01 21:01:33;;;;;;;4.97;4.47;;;;;;;;;;2614307;54;20362;-75
2023/08/01 21:07:02;;;;;;;9.53;4.87;;;;;;;;;;2613863;54;20996;-76
2023/08/01 21:12:32;;;;;;;4.33;3.93;;;;;;;;;;2614735;54;20415;-76
2023/08/01 21:18:01;;;;;;;5.60;4.10;;;;;;;;;;2613336;54;20387;-74
2023/08/01 21:20:46;;;;;;;4.67;4.10;;;;;;;;;;2613694;54;20499;-74
2023/08/01 21:23:12;;;;;;;7.60;3.90;;;;;;;;;;2614635;54;20399;-75
2023/08/01 21:28:41;;;;;;;5.63;4.30;;;;;;;;;;2613499;54;20403;-75
2023/08/01 21:34:11;;;;;;;7.40;3.70;;;;;;;;;;2614442;54;20470;-75
2023/08/01 21:39:41;;;;;;;5.83;4.37;;;;;;;;;;2614118;46;20410;-75
2023/08/01 21:45:10;;;;;;;5.43;3.80;;;;;;;;;;2614088;54;20901;-75
2023/08/01 21:50:40;;;;;;;8.27;4.43;;;;;;;;;;2614600;54;20386;-76
2023/08/01 21:56:10;;;;;;;4.50;4.10;;;;;;;;;;2613999;54;20411;-75
2023/08/01 22:01:40;;;;;;;5.63;3.63;;;;;;;;;;2614696;54;21141;-74
2023/08/01 22:07:09;;;;;;;10.70;4.23;;;;;;;;;;2615040;54;20347;-75
2023/08/01 22:12:42;;;;;;;5.53;4.20;;;;;;;;;;2615161;54;20933;-75
2023/08/01 22:18:23;;;;;;;7.80;4.53;;;;;;;;;;2614805;54;21101;-75
2023/08/01 22:23:53;;;;;;;8.30;4.73;;;;;;;;;;2614853;54;20408;-76
2023/08/01 22:29:22;;;;;;;6.90;4.00;;;;;;;;;;2614987;54;20418;-76
2023/08/01 22:34:52;;;;;;;11.57;4.17;;;;;;;;;;2615163;54;20394;-74
2023/08/01 22:40:21;;;;;;;7.03;4.70;;;;;;;;;;2613970;54;20435;-74
2023/08/01 22:45:54;;;;;;;8.53;4.40;;;;;;;;;;2615454;54;20405;-76
2023/08/01 22:51:24;;;;;;;6.30;4.20;;;;;;;;;;2615247;54;20403;-76
2023/08/01 22:56:54;;;;;;;9.23;4.47;;;;;;;;;;2614724;54;20412;-70
2023/08/01 23:08:31;;;;;;;12.77;4.50;;;;;;;;;;2614323;54;20431;-73
2023/08/01 23:14:01;;;;;;;17.87;4.40;;;;;;;;;;2615120;54;20354;-70
2023/08/01 23:19:32;;;;;;;6.07;4.33;;;;;;;;;;2615034;54;20379;-72
2023/08/01 23:25:02;;;;;;;9.83;4.80;;;;;;;;;;2616231;54;20965;-75
2023/08/01 23:30:31;;;;;;;6.53;4.70;;;;;;;;;;2614463;54;21004;-71
2023/08/01 23:36:03;;;;;;;9.53;6.13;;;;;;;;;;2616162;54;20402;-72
2023/08/01 23:41:32;;;;;;;4.70;3.57;;;;;;;;;;2615533;54;20404;-71
2023/08/01 23:47:02;;;;;;;10.37;4.70;;;;;;;;;;2616518;54;20925;-72
2023/08/01 23:52:32;;;;;;;5.80;4.53;;;;;;;;;;2615791;54;20506;-73
2023/08/01 23:58:02;;;;;;;9.33;4.80;;;;;;;;;;2616042;46;20888;-73
